AirNav   Air Wisconsin pilot careers
 
 577 users online  

X10 Belle Glade State Municipal Airport
Belle Glade, Florida, USA

GOING TO BELLE GLADE?


FAA INFORMATION EFFECTIVE 06 DECEMBER 2018

Location

FAA Identifier: X10
Lat/Long: 26-41-53.9000N / 080-39-38.9000W
26-41.898333N / 080-39.648333W
26.6983056 / -80.6608056
(estimated)
Elevation: 14 ft. / 4 m (estimated)
Variation: 03W (1985)
From city: 1 mile NE of BELLE GLADE, FL
Time zone: UTC -5 (UTC -4 during Daylight Saving Time)
Zip code: 33430

Airport Operations

Airport use: Open to the public
Activation date: 04/1940
Control tower: no
ARTCC: MIAMI CENTER
FSS: MIAMI FLIGHT SERVICE STATION
NOTAMs facility: MIA (NOTAM-D service available)
Attendance: UNATNDD
Wind indicator: lighted, WIND SOCK TORN OFF
Segmented circle: no

Airport Communications

CTAF: 122.9

Nearby radio navigation aids

VOR radial/distance  VOR name  Freq  Var
PHKr162/5.3PAHOKEE VOR/DME115.4000E
PBIr275/30.8PALM BEACH VORTAC115.7003W
LBVr100/39.9LA BELLE VORTAC110.4001E

 
NDB name  Hdg/Dist  Freq  Var  ID
UNITED239/21.540505WUTX ..- - -..-

Airport Services

Airframe service: NONE
Powerplant service: NONE
Bottled oxygen: NONE
Bulk oxygen: NONE

Runway Information

Runway 9/27

Dimensions: 3750 x 50 ft. / 1143 x 15 m
Surface: asphalt, in excellent condition
RUNWAY 9  RUNWAY 27
Latitude: 26-41.898167N26-41.897333N
Longitude: 080-39.992167W080-39.303000W
Elevation: 14.0 ft.11.0 ft.
Gradient: 0.1%0.1%
Traffic pattern: leftleft
Runway heading: 093 magnetic, 090 true273 magnetic, 270 true
Displaced threshold: 225 ft.75 ft.
Declared distances: TORA:3750 TODA:3750TORA:3750 TODA:3750
Markings: basic, in good conditionbasic, in good condition
Obstructions: 35 ft. tree, 900 ft. from runway, 30 ft. left of centerline, 20:1 slope to clear52 ft. pole, 1374 ft. from runway, 30 ft. left of centerline, 22:1 slope to clear

Airport Ownership and Management from official FAA records

Ownership: Publicly-owned
Owner: CITY OF BELLE GLADE
110 DR. MARTIN LUTHER KING JR. BLVD
BELLE GLADE, FL 33430-3900
Phone 561-996-0100
CONTACT PERSON: LOMAX HARRELLE 561-992-1601
Manager: MARCOS MONTES DE OCA
110 DR. MARTIN LUTHER KING JR. BLVD
BELLE GLADE, FL 33430
Phone 561-996-0100

Airport Operational Statistics

Aircraft based on the field: 11
Single engine airplanes: 10
Helicopters: 1
    
Aircraft operations: avg 34/week *
67% local general aviation
33% transient general aviation
* for 12-month period ending 22 March 2017

Additional Remarks

RY 09 NIGHT LNDGS NOT ADVISED DUE TO UNLGTD POWER LINES IN APCH.
BERM FULL LENGTH OF RY 113 FT N OF CNTRLN, RY 09/27.

Instrument Procedures

There are no published instrument procedures at X10.

Some nearby airports with instrument procedures:

KPHK - Palm Beach County Glades Airport (5 nm N)
2IS - Airglades Airport (21 nm W)
06FA - William P Gwinn Airport (22 nm NE)
F45 - North Palm Beach County General Aviation Airport (25 nm E)
KPBI - Palm Beach International Airport (30 nm E)
 
Loc | Ops | Rwys | IFR | FBO | Links
Com | Nav | Svcs | Stats | Notes


 
Area around X10 (Belle Glade State Municipal Airport)
 
Road maps at: MapQuest Bing Google
 
Aerial photo
WARNING: Photo may not be current or correct
Aerial photo of X10 (Belle Glade State Municipal Airport)
Do you have a better or more recent aerial photo of Belle Glade State Municipal Airport that you would like to share? If so, please send us your photo.

 
Sectional chart

 
Airport distance calculator
Flying to Belle Glade State Municipal Airport? Find the distance to fly.

From to X10

Sunrise and sunset
Times for 13-Dec-2018
 Local
(UTC-5)
 Zulu
(UTC)
Morning civil twilight06:3811:38
Sunrise07:0312:03
Sunset17:3022:30
Evening civil twilight17:5622:56

Current date and time
Zulu (UTC)  13-Dec-2018 12:11:47
Local (UTC-5)  13-Dec-2018 07:11:47
 
METAR
KPBI 
30nm E 
131053Z 11010KT 10SM SCT038 SCT050 OVC065 21/16 A3014 RMK AO2 RAE06 SLP204 P0001 T02110161
KLNA 
32nm E 
131135Z AUTO 13008KT 10SM SCT045 BKN060 OVC070 23/15 A3013 RMK AO2 T02270145
KOBE 
35nm N 
131135Z AUTO 00000KT 10SM -RA BKN040 OVC055 15/13 A3015 RMK AO2
KBCT 
36nm SE 
131147Z 14009KT 10SM FEW030 23/15 A3013
KSUA 
38nm NE 
131150Z 12008KT 7SM VCSH BKN025 OVC060 22/14 A3017
KFXE 
39nm SE 
131153Z 12008KT 10SM SCT070 22/14 A3012 RMK AO2 SLP203 60000 T02170144 10228 20211 50008 $
KPMP 
40nm SE 
131053Z AUTO 12012KT 10SM FEW037 OVC065 23/15 A3012 RMK AO2 SLP201 T02330150
KIMM 
43nm W 
131135Z AUTO 05007KT 10SM FEW070 14/13 A3014 RMK A01
KFLL 
47nm SE 
131153Z 13010KT 10SM SCT027 BKN065 22/15 A3012 RMK AO2 SLP199 60000 T02170150 10228 20217 53009
KHWO 
48nm SE 
131153Z 12005KT 10SM CLR 19/14 A3014 RMK AO2 SLP205 60000 T01890139 10228 20189 51008
TAF
KPBI 
30nm E 
131120Z 1312/1412 10010KT P6SM -SHRA SCT035 BKN060 BKN250 FM131400 12012KT P6SM BKN050 BKN250 FM140100 13010KT P6SM SCT050 BKN250
KSUA 
38nm NE 
131124Z 1312/1412 11008KT P6SM VCSH SCT040 OVC060 FM131400 13010KT P6SM VCSH BKN040 FM140000 12008KT P6SM VCSH SCT035 BKN100 FM140600 15009KT P6SM SCT030 BKN100
NOTAMs
Click for the latest NOTAMs
NOTAMs are issued by the DoD/FAA and will open in a separate window not controlled by AirNav.

 

 
 

Would you like to see your business listed on this page?

 If your business provides an interesting product or service to pilots, flight crews, aircraft, or users of the Belle Glade State Municipal Airport, you should consider listing it here.  To start the listing process, click on the button below
 
Add a business
 

Other Pages about Belle Glade State Municipal Airport

Update a link
 
Copyright © AirNav, LLC. All rights reserved. Privacy Policy  Contact